Time;durP1;ratioP1;P1;durP2;ratioP2;P2;SDS_P1;SDS_P2;PMS_P1;PMS_P2;Temp;Humidity;BMP_temperature;BMP_pressure;BME280_temperature;BME280_humidity;BME280_pressure;Samples;Min_cycle;Max_cycle;Signal;HPM_P1;HPM_P2
2022/09/26 00:00:35;;;;;;;10.53;9.73;;;;;;;12.18;70.96;92791.22;5130848;28;20919;-76
2022/09/26 00:03:00;;;;;;;10.50;9.83;;;;;;;12.13;71.56;92803.59;5131781;28;20195;-75
2022/09/26 00:05:26;;;;;;;9.43;8.70;;;;;;;11.94;71.41;92781.88;5129829;28;20219;-75
2022/09/26 00:07:51;;;;;;;11.30;10.60;;;;;;;12.01;71.45;92800.63;5131208;28;20187;-74
2022/09/26 00:10:17;;;;;;;9.50;8.90;;;;;;;11.99;72.58;92782.59;5131118;28;20241;-75
2022/09/26 00:12:42;;;;;;;10.57;9.67;;;;;;;11.94;73.13;92798.34;5129924;28;20234;-76
2022/09/26 00:15:08;;;;;;;10.43;9.60;;;;;;;11.85;73.73;92786.16;5129411;28;20231;-76
2022/09/26 00:17:34;;;;;;;10.53;9.93;;;;;;;11.91;73.57;92780.59;5128610;28;20225;-75
2022/09/26 00:19:59;;;;;;;11.30;10.37;;;;;;;11.93;74.20;92790.78;5132201;28;20215;-76
2022/09/26 00:22:24;;;;;;;10.70;9.97;;;;;;;12.20;73.34;92778.63;5129406;28;20225;-76
2022/09/26 00:24:51;;;;;;;10.20;9.70;;;;;;;12.00;73.71;92786.00;5131454;27;20631;-76
2022/09/26 00:27:16;;;;;;;10.63;10.03;;;;;;;11.95;74.42;92781.59;5130491;28;20219;-76
2022/09/26 00:29:42;;;;;;;10.30;9.80;;;;;;;11.89;74.51;92776.72;5131550;28;20227;-76
2022/09/26 00:32:07;;;;;;;41.33;23.40;;;;;;;11.70;74.50;92768.06;5129729;27;20203;-76
2022/09/26 00:34:33;;;;;;;10.00;9.40;;;;;;;11.50;76.06;92766.47;5131968;28;20230;-76
2022/09/26 00:36:58;;;;;;;9.40;8.80;;;;;;;11.67;76.02;92785.09;5129364;28;20186;-76
2022/09/26 00:39:24;;;;;;;11.30;10.63;;;;;;;11.53;76.18;92773.75;5129986;27;20199;-75
2022/09/26 00:41:49;;;;;;;10.60;10.00;;;;;;;11.61;76.49;92790.63;5130613;28;20188;-76
2022/09/26 00:44:43;;;;;;;11.10;10.50;;;;;;;11.63;76.32;92799.78;5131329;28;20211;-75
2022/09/26 00:47:39;;;;;;;11.10;10.33;;;;;;;11.75;75.81;92788.94;5129906;28;20191;-72
2022/09/26 00:50:12;;;;;;;11.60;10.83;;;;;;;11.94;74.76;92789.75;5129539;28;20241;-72
2022/09/26 00:52:44;;;;;;;10.83;10.23;;;;;;;11.87;74.86;92777.00;5129845;28;20254;-72
2022/09/26 00:55:13;;;;;;;11.60;10.83;;;;;;;11.82;75.54;92766.59;5131212;27;20235;-72
2022/09/26 00:57:52;;;;;;;10.30;9.57;;;;;;;11.86;76.42;92766.81;5129306;28;20186;-72
2022/09/26 01:00:17;;;;;;;11.50;10.50;;;;;;;11.90;76.07;92771.19;5129585;28;20227;-72
2022/09/26 01:02:45;;;;;;;10.23;9.70;;;;;;;11.99;75.50;92771.34;5130652;28;20200;-72
2022/09/26 01:05:14;;;;;;;10.97;10.37;;;;;;;12.04;74.88;92768.66;5130186;28;20228;-71
2022/09/26 01:07:40;;;;;;;10.53;9.93;;;;;;;12.16;75.06;92763.75;5129107;28;20207;-72
2022/09/26 01:10:06;;;;;;;10.23;9.57;;;;;;;11.97;75.83;92742.06;5129671;28;20227;-72
2022/09/26 01:12:31;;;;;;;10.70;10.00;;;;;;;11.83;77.25;92770.75;5131119;28;20219;-73
2022/09/26 01:14:57;;;;;;;10.47;9.53;;;;;;;11.98;76.65;92767.16;5128821;28;20792;-72
2022/09/26 01:17:25;;;;;;;10.60;10.00;;;;;;;12.08;75.38;92756.53;5130682;28;20191;-72
2022/09/26 01:19:56;;;;;;;10.27;9.67;;;;;;;12.23;75.75;92756.34;5129455;28;20305;-72
2022/09/26 01:22:28;;;;;;;11.20;10.47;;;;;;;12.15;75.50;92756.97;5128320;28;20223;-72
2022/09/26 01:25:15;;;;;;;11.53;10.93;;;;;;;12.16;76.40;92761.94;5127690;28;20230;-72
2022/09/26 01:28:02;;;;;;;11.37;10.67;;;;;;;12.14;76.96;92756.19;5127945;28;20199;-72
2022/09/26 01:30:53;;;;;;;9.73;9.20;;;;;;;12.09;77.18;92755.50;5127491;28;20276;-73
2022/09/26 01:33:28;;;;;;;11.03;10.37;;;;;;;12.06;78.02;92753.47;5128936;28;20215;-72
2022/09/26 01:36:10;;;;;;;10.90;10.20;;;;;;;12.11;77.64;92753.38;5129189;28;20226;-72
2022/09/26 01:38:46;;;;;;;11.50;10.70;;;;;;;12.07;77.24;92757.63;5129168;28;20193;-72
2022/09/26 01:41:37;;;;;;;11.57;10.93;;;;;;;12.17;78.06;92762.72;5130053;28;20183;-72
2022/09/26 01:44:33;;;;;;;11.70;10.80;;;;;;;12.24;77.98;92757.88;5126438;28;20231;-72
2022/09/26 01:47:03;;;;;;;11.37;10.67;;;;;;;12.21;77.86;92751.41;5129897;28;20179;-72
2022/09/26 01:50:05;;;;;;;10.77;10.17;;;;;;;12.22;77.78;92760.00;5129721;28;20244;-71
2022/09/26 01:52:47;;;;;;;11.40;10.63;;;;;;;12.30;77.82;92757.53;5129262;28;20208;-72
2022/09/26 01:55:29;;;;;;;10.77;10.17;;;;;;;12.41;77.61;92758.16;5126856;28;20288;-72
2022/09/26 01:58:02;;;;;;;11.53;10.80;;;;;;;12.39;77.41;92760.31;5130304;28;20650;-72
2022/09/26 02:00:28;;;;;;;11.50;10.70;;;;;;;12.34;76.92;92739.44;5128757;28;20231;-71
2022/09/26 02:02:55;;;;;;;11.60;10.80;;;;;;;12.39;78.32;92734.88;5130271;28;20258;-72
2022/09/26 02:05:28;;;;;;;11.50;10.80;;;;;;;12.45;79.02;92751.31;5129090;28;20215;-72
2022/09/26 02:08:01;;;;;;;12.10;11.23;;;;;;;12.42;78.57;92744.03;5129121;28;20200;-71
2022/09/26 02:10:33;;;;;;;11.97;10.97;;;;;;;12.38;78.23;92737.78;5129473;28;20221;-72
2022/09/26 02:13:08;;;;;;;11.90;11.10;;;;;;;12.37;79.54;92731.00;5128806;28;20219;-72
2022/09/26 02:15:36;;;;;;;11.27;10.50;;;;;;;12.38;79.29;92724.69;5127097;27;20222;-73
2022/09/26 02:18:19;;;;;;;10.87;10.17;;;;;;;12.45;78.70;92722.50;5128292;28;20180;-73
2022/09/26 02:20:54;;;;;;;11.83;11.03;;;;;;;12.42;79.02;92733.53;5128614;28;20244;-72
2022/09/26 02:23:20;;;;;;;11.57;10.67;;;;;;;12.44;79.10;92732.19;5127382;28;20264;-73
2022/09/26 02:25:46;;;;;;;11.93;11.07;;;;;;;12.34;79.62;92715.88;5127660;28;20226;-72
2022/09/26 02:28:13;;;;;;;11.20;10.53;;;;;;;12.34;79.72;92715.88;5128207;28;20184;-72
2022/09/26 02:30:40;;;;;;;12.17;11.37;;;;;;;12.42;80.09;92713.34;5127180;28;20320;-72
2022/09/26 02:33:06;;;;;;;12.00;11.10;;;;;;;12.47;79.57;92728.22;5128937;28;20203;-72
2022/09/26 02:38:16;;;;;;;12.87;11.57;;;;;;;12.45;78.25;92698.94;5127452;28;20202;-72
2022/09/26 02:41:04;;;;;;;12.37;11.40;;;;;;;12.61;78.13;92693.16;5127317;28;20215;-72
2022/09/26 02:43:51;;;;;;;11.73;10.87;;;;;;;12.60;77.68;92703.91;5128412;28;20189;-72
2022/09/26 02:46:32;;;;;;;11.40;10.57;;;;;;;12.58;77.13;92700.78;5129243;28;20188;-72
2022/09/26 02:49:12;;;;;;;10.53;9.93;;;;;;;12.61;77.38;92701.00;5126939;28;20223;-72
2022/09/26 02:51:53;;;;;;;11.40;10.63;;;;;;;12.62;76.99;92696.53;5128793;28;20187;-72
2022/09/26 02:54:50;;;;;;;10.97;10.27;;;;;;;12.61;76.95;92697.59;5127989;28;20259;-72
2022/09/26 02:57:53;;;;;;;11.47;10.53;;;;;;;12.62;77.10;92702.53;5128499;28;20194;-72
2022/09/26 03:00:27;;;;;;;11.80;11.10;;;;;;;12.66;76.28;92700.13;5126228;28;20254;-72
2022/09/26 03:03:30;;;;;;;11.73;10.77;;;;;;;12.51;76.77;92692.53;5129057;28;20221;-73
2022/09/26 03:05:58;;;;;;;12.23;11.33;;;;;;;12.43;77.45;92677.50;5099152;28;20214;-72
2022/09/26 03:08:27;;;;;;;12.23;11.37;;;;;;;12.47;78.61;92687.09;5130328;28;20190;-74
2022/09/26 03:10:58;;;;;;;11.87;11.07;;;;;;;12.54;78.70;92694.59;5133503;28;20177;-72
2022/09/26 03:13:25;;;;;;;12.20;11.30;;;;;;;12.52;78.23;92686.22;5130521;28;20207;-73
2022/09/26 03:15:55;;;;;;;11.30;10.60;;;;;;;12.69;76.54;92699.56;5133874;28;20203;-73
2022/09/26 03:18:27;;;;;;;12.53;11.70;;;;;;;12.66;77.02;92700.91;5132813;28;20203;-72
2022/09/26 03:20:53;;;;;;;10.93;10.23;;;;;;;12.56;77.28;92695.84;5133272;28;20239;-71
2022/09/26 03:23:28;;;;;;;11.53;10.73;;;;;;;12.54;77.73;92689.34;5131808;28;20205;-78
2022/09/26 03:26:02;;;;;;;12.23;11.43;;;;;;;12.41;78.36;92666.50;5129443;28;20214;-75
2022/09/26 03:28:28;;;;;;;13.40;12.10;;;;;;;12.39;77.91;92656.34;5131645;28;20753;-76
2022/09/26 03:30:53;;;;;;;12.23;11.53;;;;;;;12.61;77.92;92681.88;5132086;28;20202;-76
2022/09/26 03:33:19;;;;;;;12.57;11.77;;;;;;;12.56;77.26;92674.88;5132908;28;20211;-76
2022/09/26 03:35:44;;;;;;;11.47;10.57;;;;;;;12.69;77.38;92682.00;5130050;27;20283;-76
2022/09/26 03:38:10;;;;;;;12.30;11.50;;;;;;;12.48;76.90;92646.75;5133142;28;20182;-75
2022/09/26 03:40:35;;;;;;;13.27;12.20;;;;;;;12.57;77.33;92667.81;5129984;28;20253;-75
2022/09/26 03:43:00;;;;;;;13.00;11.83;;;;;;;12.34;77.90;92639.94;5133037;28;20191;-76
2022/09/26 03:45:27;;;;;;;12.40;11.50;;;;;;;12.50;78.57;92649.06;5130574;28;20219;-75
2022/09/26 03:47:57;;;;;;;12.30;11.30;;;;;;;12.51;78.51;92661.88;5131655;28;20200;-75
2022/09/26 03:50:23;;;;;;;12.93;12.00;;;;;;;12.58;76.60;92669.38;5128992;28;20239;-76
2022/09/26 03:52:48;;;;;;;12.77;11.77;;;;;;;12.33;78.34;92675.81;5131561;28;20226;-75
2022/09/26 03:55:14;;;;;;;13.37;12.13;;;;;;;12.41;76.89;92677.00;5130688;27;20275;-72
2022/09/26 03:57:39;;;;;;;11.33;10.63;;;;;;;12.49;75.94;92671.09;5129090;28;20218;-76
2022/09/26 04:00:06;;;;;;;12.33;10.80;;;;;;;12.40;77.57;92673.63;5129157;28;20223;-76
2022/09/26 04:02:33;;;;;;;12.03;11.30;;;;;;;12.58;76.46;92674.59;5131196;28;20197;-76
2022/09/26 04:04:58;;;;;;;11.27;10.27;;;;;;;12.67;76.00;92672.88;5130468;28;20247;-75
2022/09/26 04:07:24;;;;;;;11.83;11.07;;;;;;;12.73;75.72;92679.59;5131675;28;20175;-75
2022/09/26 04:09:49;;;;;;;11.10;10.33;;;;;;;12.74;74.74;92660.19;5129696;28;20286;-73
2022/09/26 04:12:14;;;;;;;12.67;11.77;;;;;;;12.67;75.64;92667.63;5131434;28;20212;-75
2022/09/26 04:14:42;;;;;;;11.97;11.07;;;;;;;12.59;75.56;92652.59;5129369;28;20237;-77
2022/09/26 04:17:07;;;;;;;12.63;11.73;;;;;;;12.79;75.26;92666.09;5130166;28;20182;-76
2022/09/26 04:19:33;;;;;;;13.20;11.67;;;;;;;12.78;75.58;92658.53;5129480;28;20235;-74
2022/09/26 04:21:58;;;;;;;11.60;10.90;;;;;;;12.83;75.51;92684.63;5131146;28;20229;-75
2022/09/26 04:24:24;;;;;;;11.17;10.33;;;;;;;12.75;75.16;92683.47;5130596;28;20235;-77
2022/09/26 04:26:49;;;;;;;15.90;14.67;;;;;;;12.67;75.70;92668.41;5130729;28;20186;-77
2022/09/26 04:29:15;;;;;;;12.50;11.40;;;;;;;12.82;76.77;92672.59;5130448;28;20223;-76
2022/09/26 04:31:40;;;;;;;12.77;11.70;;;;;;;12.88;77.36;92681.94;5129752;28;20188;-75
2022/09/26 04:34:06;;;;;;;12.37;11.37;;;;;;;12.94;77.30;92678.94;5129826;28;20215;-77
2022/09/26 04:36:31;;;;;;;12.53;11.43;;;;;;;12.95;77.42;92679.69;5129183;28;20217;-73
2022/09/26 04:38:59;;;;;;;14.27;12.97;;;;;;;12.90;77.50;92692.91;5130121;28;20249;-71
2022/09/26 04:41:26;;;;;;;12.67;11.57;;;;;;;12.99;76.81;92706.88;5129653;28;20176;-73
2022/09/26 04:43:56;;;;;;;10.83;10.13;;;;;;;13.04;76.96;92693.72;5129293;28;20226;-76
2022/09/26 04:46:26;;;;;;;12.27;11.40;;;;;;;12.98;77.57;92673.09;5130955;28;20183;-74
2022/09/26 04:48:53;;;;;;;12.23;11.27;;;;;;;12.81;78.76;92686.75;5128915;28;20278;-76
2022/09/26 04:51:20;;;;;;;23.77;14.80;;;;;;;12.84;78.95;92667.88;5129603;28;20176;-76
2022/09/26 04:53:46;;;;;;;25.83;17.20;;;;;;;13.02;77.86;92684.56;5129857;27;20227;-75
2022/09/26 04:56:13;;;;;;;15.03;12.47;;;;;;;12.84;77.91;92668.63;5145402;27;20187;-76
2022/09/26 04:58:43;;;;;;;13.10;12.20;;;;;;;13.01;76.86;92678.56;5127899;28;20184;-75
2022/09/26 05:01:14;;;;;;;13.20;11.83;;;;;;;13.00;76.35;92670.97;5129138;28;20175;-75
2022/09/26 05:03:40;;;;;;;13.50;12.27;;;;;;;12.96;77.26;92686.50;5127488;27;20179;-75
2022/09/26 05:06:07;;;;;;;12.90;11.70;;;;;;;13.15;76.59;92689.06;5129431;28;20201;-75
2022/09/26 05:08:35;;;;;;;12.67;11.50;;;;;;;13.28;75.39;92689.03;5127659;28;20290;-76
2022/09/26 05:11:01;;;;;;;12.33;11.53;;;;;;;13.21;75.68;92659.84;5129318;28;20203;-75
2022/09/26 05:13:27;;;;;;;12.90;12.03;;;;;;;13.31;75.02;92680.59;5128733;28;21076;-76
2022/09/26 05:15:54;;;;;;;13.97;12.50;;;;;;;13.28;75.37;92672.53;5129741;28;20195;-75
2022/09/26 05:18:22;;;;;;;12.60;11.70;;;;;;;13.32;74.76;92668.25;5129895;28;20192;-75
2022/09/26 05:20:48;;;;;;;13.53;12.13;;;;;;;13.22;75.38;92668.44;5129852;28;20238;-75
2022/09/26 05:28:45;;;;;;;14.23;11.93;;;;;;;13.29;78.00;92664.38;5128590;28;20248;-75
2022/09/26 05:31:10;;;;;;;13.20;12.00;;;;;;;13.73;76.09;92663.69;5129552;27;20192;-76
2022/09/26 05:33:37;;;;;;;13.43;12.03;;;;;;;14.17;73.78;92632.25;5128501;27;20203;-75
2022/09/26 05:36:03;;;;;;;13.23;11.93;;;;;;;14.28;73.91;92637.00;5129534;28;20232;-75
2022/09/26 05:38:28;;;;;;;13.47;12.10;;;;;;;14.37;74.21;92645.69;5129893;27;20183;-76
2022/09/26 05:40:56;;;;;;;11.03;10.10;;;;;;;14.86;72.03;92638.69;5128330;28;20183;-75
2022/09/26 05:43:29;;;;;;;11.53;10.43;;;;;;;14.89;71.78;92648.59;5128661;28;20198;-75
2022/09/26 05:45:57;;;;;;;15.07;10.47;;;;;;;15.03;71.93;92646.63;5128307;28;20211;-75
2022/09/26 05:48:23;;;;;;;12.30;11.40;;;;;;;14.99;70.48;92648.31;5128858;28;20203;-78
2022/09/26 05:50:49;;;;;;;14.80;13.53;;;;;;;15.09;69.29;92653.28;5128172;28;20229;-74
2022/09/26 05:53:15;;;;;;;12.63;11.00;;;;;;;14.93;69.72;92657.41;5128688;28;20205;-75
2022/09/26 05:55:40;;;;;;;11.93;10.73;;;;;;;15.11;69.31;92657.19;5129293;28;20238;-76
2022/09/26 05:58:06;;;;;;;11.57;10.57;;;;;;;15.11;69.54;92661.66;5125804;28;21042;-75
2022/09/26 06:00:33;;;;;;;11.73;10.77;;;;;;;14.91;70.71;92649.06;5127909;28;20255;-75
2022/09/26 06:03:05;;;;;;;12.93;10.60;;;;;;;14.93;70.93;92652.94;5128780;28;20223;-75
2022/09/26 06:05:32;;;;;;;12.53;11.43;;;;;;;15.27;70.25;92660.19;5128529;28;20260;-75
2022/09/26 06:08:00;;;;;;;12.90;11.57;;;;;;;15.48;67.95;92656.69;5129354;28;20256;-75
2022/09/26 06:10:26;;;;;;;10.73;9.63;;;;;;;15.75;66.17;92651.16;5128066;28;20242;-75
2022/09/26 06:12:51;;;;;;;10.73;10.13;;;;;;;16.03;63.87;92668.19;5129192;28;20237;-75
2022/09/26 06:15:16;;;;;;;10.70;9.87;;;;;;;16.59;60.02;92669.88;5128944;28;20272;-75
2022/09/26 06:17:42;;;;;;;10.67;9.67;;;;;;;16.66;58.31;92670.19;5129016;28;20207;-75
2022/09/26 06:20:08;;;;;;;10.27;9.37;;;;;;;16.11;59.50;92669.28;5126491;28;20223;-75
2022/09/26 06:22:41;;;;;;;10.43;9.63;;;;;;;16.12;59.58;92678.75;5129040;28;20213;-75
2022/09/26 06:25:10;;;;;;;10.53;9.73;;;;;;;16.58;59.97;92670.19;5127758;28;20227;-75
2022/09/26 06:27:37;;;;;;;11.33;10.43;;;;;;;16.23;63.05;92664.19;5128081;28;20280;-76
2022/09/26 06:30:09;;;;;;;11.07;10.27;;;;;;;16.19;61.21;92657.22;5127181;28;20231;-75
2022/09/26 06:32:38;;;;;;;9.97;9.27;;;;;;;16.27;59.10;92677.50;5128244;28;21392;-74
2022/09/26 06:35:04;;;;;;;11.13;10.23;;;;;;;16.04;61.17;92682.16;5126895;28;20226;-75
2022/09/26 06:37:29;;;;;;;11.30;10.20;;;;;;;16.29;60.03;92685.88;5127594;28;20175;-75
2022/09/26 06:39:55;;;;;;;9.73;9.17;;;;;;;16.64;56.86;92667.09;5128194;28;20235;-74
2022/09/26 06:42:20;;;;;;;11.93;10.77;;;;;;;16.62;56.83;92658.75;5127830;28;20199;-75
2022/09/26 06:44:46;;;;;;;10.40;9.60;;;;;;;16.60;56.09;92657.50;5128877;28;20227;-76
2022/09/26 06:47:12;;;;;;;12.63;11.30;;;;;;;16.52;56.76;92658.28;5127215;28;20187;-75
2022/09/26 06:49:37;;;;;;;12.03;11.03;;;;;;;16.48;56.14;92658.16;5128292;28;20246;-75
2022/09/26 06:52:03;;;;;;;11.10;10.07;;;;;;;16.06;58.67;92661.56;5126691;28;20203;-75
2022/09/26 06:54:28;;;;;;;10.77;9.97;;;;;;;16.22;58.23;92670.53;5128267;28;20223;-76
2022/09/26 06:56:54;;;;;;;11.27;10.47;;;;;;;15.95;59.86;92670.84;5127381;28;20184;-74
2022/09/26 06:59:22;;;;;;;11.53;10.63;;;;;;;16.03;60.63;92638.47;5128129;27;20227;-76
2022/09/26 07:01:47;;;;;;;12.50;11.20;;;;;;;16.14;60.95;92673.19;5127607;28;20187;-75
2022/09/26 07:04:14;;;;;;;12.57;11.40;;;;;;;15.91;60.88;92670.69;5127679;28;20242;-76
2022/09/26 07:06:41;;;;;;;10.90;10.03;;;;;;;16.17;58.35;92670.69;5128078;28;20951;-75
2022/09/26 07:09:07;;;;;;;17.77;13.07;;;;;;;16.39;57.47;92657.31;5127287;28;20227;-74
2022/09/26 07:11:33;;;;;;;20.37;13.77;;;;;;;16.46;59.15;92668.22;5127548;28;20217;-76
2022/09/26 07:14:00;;;;;;;15.67;12.47;;;;;;;17.02;57.80;92678.47;5127435;28;20230;-74
2022/09/26 07:16:26;;;;;;;11.90;11.00;;;;;;;17.05;57.29;92677.06;5127601;28;20187;-75
2022/09/26 07:18:52;;;;;;;11.40;10.57;;;;;;;17.39;56.82;92682.97;5125933;28;20278;-75
2022/09/26 07:21:17;;;;;;;13.67;12.47;;;;;;;17.49;53.64;92685.28;5125953;28;20192;-72
2022/09/26 07:23:43;;;;;;;11.67;10.87;;;;;;;17.21;54.72;92683.38;5126609;28;20288;-75
2022/09/26 07:26:08;;;;;;;12.40;11.50;;;;;;;16.59;57.79;92685.69;5126772;28;20191;-75
2022/09/26 07:28:33;;;;;;;11.23;10.40;;;;;;;16.61;56.13;92669.56;5125931;28;20184;-74
2022/09/26 07:30:59;;;;;;;11.20;10.40;;;;;;;16.82;55.62;92686.28;5128635;28;20195;-75
2022/09/26 07:33:24;;;;;;;11.33;10.10;;;;;;;17.07;55.54;92680.94;5126858;28;20988;-75
2022/09/26 07:35:50;;;;;;;11.07;10.10;;;;;;;17.21;54.26;92680.72;5128351;28;20259;-74
2022/09/26 07:38:16;;;;;;;11.53;10.53;;;;;;;17.22;54.65;92684.91;5128129;28;20732;-71
2022/09/26 07:40:42;;;;;;;10.63;9.77;;;;;;;17.23;53.42;92666.13;5127181;28;20251;-71
2022/09/26 07:43:09;;;;;;;11.67;10.80;;;;;;;16.99;55.74;92681.75;5127946;28;20211;-73
2022/09/26 07:51:04;;;;;;;14.17;12.97;;;;;;;16.91;55.68;92687.81;5128005;28;20224;-72
2022/09/26 07:53:29;;;;;;;13.13;12.10;;;;;;;16.73;55.43;92659.94;5131236;28;20223;-75
2022/09/26 07:56:04;;;;;;;13.07;11.90;;;;;;;16.39;56.14;92651.31;5132537;28;20190;-75
2022/09/26 07:58:31;;;;;;;13.33;12.00;;;;;;;16.79;55.22;92663.97;5128173;27;20191;-75
2022/09/26 08:00:56;;;;;;;13.00;11.73;;;;;;;16.76;54.63;92632.94;5131770;28;20187;-73
2022/09/26 08:03:25;;;;;;;12.17;11.17;;;;;;;16.84;55.36;92658.50;5131688;28;20183;-74
2022/09/26 08:05:53;;;;;;;12.60;11.20;;;;;;;16.65;54.79;92626.47;5130686;28;20211;-73
2022/09/26 08:08:18;;;;;;;12.07;11.10;;;;;;;17.08;53.82;92652.69;5130534;28;20187;-73
2022/09/26 08:10:45;;;;;;;11.57;10.43;;;;;;;16.85;55.75;92633.69;5131469;28;20249;-73
2022/09/26 08:13:11;;;;;;;11.63;10.63;;;;;;;17.03;55.77;92645.72;5130795;28;20849;-70
2022/09/26 08:15:36;;;;;;;10.70;9.87;;;;;;;17.54;52.60;92634.94;5130919;28;20316;-71
2022/09/26 08:18:02;;;;;;;11.60;10.63;;;;;;;17.25;53.62;92629.66;5131680;28;20191;-72
2022/09/26 08:20:28;;;;;;;12.80;10.17;;;;;;;17.02;53.38;92609.09;5131323;28;20226;-71
2022/09/26 08:22:54;;;;;;;13.27;10.13;;;;;;;17.18;55.58;92634.63;5130151;27;20197;-72
2022/09/26 08:25:19;;;;;;;10.77;9.80;;;;;;;17.57;52.39;92618.47;5130578;28;20219;-73
2022/09/26 08:27:46;;;;;;;10.27;9.47;;;;;;;17.72;50.75;92616.34;5130729;28;20191;-73
2022/09/26 08:30:11;;;;;;;11.10;10.33;;;;;;;16.83;52.66;92612.13;5129938;28;20268;-73
2022/09/26 08:32:37;;;;;;;11.03;9.97;;;;;;;16.79;53.84;92627.06;5130346;28;20204;-73
2022/09/26 08:35:03;;;;;;;10.87;10.00;;;;;;;16.69;54.18;92622.09;5131054;28;20235;-72
2022/09/26 08:37:32;;;;;;;10.67;9.70;;;;;;;16.43;57.76;92624.00;5127496;28;20187;-72
2022/09/26 08:39:59;;;;;;;10.23;9.63;;;;;;;16.35;57.77;92622.16;5130459;28;20223;-73
2022/09/26 08:42:40;;;;;;;14.43;9.97;;;;;;;16.50;56.36;92623.56;5129339;28;20203;-72
2022/09/26 08:48:38;;;;;;;11.50;10.47;;;;;;;17.26;55.30;92617.22;5130515;28;20273;-73
2022/09/26 08:51:15;;;;;;;12.20;9.67;;;;;;;16.84;55.09;92618.94;5131132;28;20285;-70
2022/09/26 08:53:51;;;;;;;11.50;10.60;;;;;;;16.49;55.05;92622.00;5129858;28;20217;-72
2022/09/26 08:56:26;;;;;;;10.90;10.00;;;;;;;16.53;55.98;92610.50;5129054;28;20210;-72
2022/09/26 08:58:54;;;;;;;10.40;9.60;;;;;;;16.59;57.62;92579.50;5129582;28;20254;-72
2022/09/26 09:01:34;;;;;;;11.27;10.27;;;;;;;16.38;55.89;92584.66;5130265;27;20895;-72
2022/09/26 09:04:14;;;;;;;10.90;10.00;;;;;;;16.95;55.20;92617.50;5127462;28;20234;-72
2022/09/26 09:06:42;;;;;;;10.97;9.97;;;;;;;17.27;54.02;92601.09;5129916;28;20250;-71
2022/09/26 09:09:13;;;;;;;10.63;9.83;;;;;;;17.45;54.29;92610.47;5129939;28;20247;-70
2022/09/26 09:11:51;;;;;;;14.97;10.87;;;;;;;17.42;54.83;92611.06;5130142;28;20190;-71
2022/09/26 09:14:35;;;;;;;11.30;10.30;;;;;;;17.44;55.04;92611.56;5130260;28;20238;-72
2022/09/26 09:17:13;;;;;;;12.50;10.33;;;;;;;17.67;53.77;92619.16;5128351;28;20236;-72
2022/09/26 09:20:01;;;;;;;11.00;10.10;;;;;;;17.23;56.72;92626.53;5129561;28;20227;-71
2022/09/26 09:23:11;;;;;;;11.40;10.40;;;;;;;17.22;56.88;92608.38;5129750;28;20199;-70
2022/09/26 09:25:49;;;;;;;11.57;10.47;;;;;;;17.39;55.34;92609.06;5122497;28;20248;-69
2022/09/26 09:28:35;;;;;;;11.57;10.67;;;;;;;17.39;53.66;92580.03;5127978;28;20188;-70
2022/09/26 09:31:05;;;;;;;14.13;12.77;;;;;;;17.80;56.15;92612.88;5129432;28;20848;-71
2022/09/26 09:33:42;;;;;;;12.20;10.40;;;;;;;18.29;53.10;92607.47;5130001;28;20235;-70
2022/09/26 09:36:13;;;;;;;12.47;11.40;;;;;;;18.46;51.54;92610.00;5129304;28;20187;-72
2022/09/26 09:38:44;;;;;;;10.93;10.10;;;;;;;18.47;52.83;92598.34;5129301;28;20869;-71
2022/09/26 09:41:13;;;;;;;16.20;14.90;;;;;;;18.79;51.17;92586.94;5128647;28;20211;-71
2022/09/26 09:43:53;;;;;;;13.50;12.60;;;;;;;19.23;49.71;92585.31;5127880;28;20250;-71
2022/09/26 09:46:28;;;;;;;13.40;10.93;;;;;;;19.17;48.52;92589.28;5129798;28;20195;-71
2022/09/26 09:49:18;;;;;;;11.70;10.90;;;;;;;18.92;48.99;92590.38;5125252;28;20208;-71
2022/09/26 09:51:59;;;;;;;11.00;10.13;;;;;;;19.41;47.20;92601.78;5128813;28;20183;-69
2022/09/26 09:54:40;;;;;;;11.67;10.00;;;;;;;19.27;47.29;92594.13;5127440;28;20231;-73
2022/09/26 09:57:18;;;;;;;15.53;14.03;;;;;;;19.06;48.74;92585.53;5126874;28;20235;-71
2022/09/26 10:00:21;;;;;;;12.50;9.80;;;;;;;19.17;48.27;92558.25;5128503;28;20227;-73
2022/09/26 10:03:00;;;;;;;12.57;11.27;;;;;;;19.09;50.18;92574.28;5121964;28;20212;-73
2022/09/26 10:05:29;;;;;;;13.00;11.03;;;;;;;19.10;51.01;92565.22;5127694;28;20182;-73
2022/09/26 10:07:57;;;;;;;11.10;10.30;;;;;;;18.94;51.68;92548.47;5127960;28;20239;-73
2022/09/26 10:10:36;;;;;;;10.87;10.00;;;;;;;18.80;51.49;92559.38;5128395;28;20196;-73
2022/09/26 10:13:02;;;;;;;10.80;9.83;;;;;;;18.94;52.08;92561.72;5127419;28;20244;-74
2022/09/26 10:15:28;;;;;;;10.70;9.80;;;;;;;19.35;48.69;92571.31;5126873;28;20174;-73
2022/09/26 10:18:05;;;;;;;10.40;9.70;;;;;;;19.99;45.81;92566.75;5128257;28;20216;-72
2022/09/26 10:20:40;;;;;;;13.97;10.23;;;;;;;19.99;47.11;92564.09;5127553;28;20234;-72
2022/09/26 10:23:45;;;;;;;10.40;9.60;;;;;;;19.83;48.29;92561.38;5127018;28;20240;-73
2022/09/26 10:26:12;;;;;;;11.27;10.37;;;;;;;19.75;47.54;92535.78;5035094;28;21073;-73
2022/09/26 10:28:56;;;;;;;10.93;10.20;;;;;;;19.08;47.67;92531.16;5111978;28;20363;-73
2022/09/26 10:31:33;;;;;;;9.87;9.20;;;;;;;19.66;48.03;92560.91;5128724;28;20219;-73
2022/09/26 10:34:02;;;;;;;10.53;9.53;;;;;;;19.90;47.49;92564.25;5126647;28;20209;-73
2022/09/26 10:36:45;;;;;;;10.10;9.50;;;;;;;20.29;46.66;92542.25;5111654;28;20286;-73
2022/09/26 10:41:59;;;;;;;10.73;9.83;;;;;;;20.64;45.79;92553.75;5127463;28;20236;-71
2022/09/26 10:44:29;;;;;;;9.80;9.17;;;;;;;21.26;45.53;92547.69;5127643;28;20181;-71
2022/09/26 10:47:07;;;;;;;11.20;10.23;;;;;;;21.40;45.00;92541.94;5128518;28;20230;-71
2022/09/26 10:50:04;;;;;;;11.50;10.53;;;;;;;21.10;44.11;92519.63;5128910;28;20208;-70
2022/09/26 10:52:37;;;;;;;9.65;9.05;;;;;;;21.29;44.54;92531.06;5126184;28;20249;-71
2022/09/26 10:55:24;;;;;;;11.97;9.87;;;;;;;20.91;45.93;92514.22;5122191;28;20187;-72
2022/09/26 10:57:56;;;;;;;10.30;9.17;;;;;;;21.39;43.89;92530.53;5127867;28;20214;-73
2022/09/26 11:00:36;;;;;;;9.27;8.05;;;;;;;21.21;44.13;92517.97;5127268;28;20241;-71
2022/09/26 11:03:15;;;;;;;9.93;8.98;;;;;;;21.12;45.13;92504.13;5125280;28;20218;-73
2022/09/26 11:05:55;;;;;;;9.98;9.23;;;;;;;20.97;45.73;92496.94;5126745;28;20175;-71
2022/09/26 11:08:23;;;;;;;9.43;8.75;;;;;;;21.54;44.93;92505.81;5126437;28;21613;-71
2022/09/26 11:10:51;;;;;;;10.90;10.10;;;;;;;21.29;45.22;92517.03;5127746;28;20222;-73
2022/09/26 11:13:17;;;;;;;8.73;8.25;;;;;;;21.33;45.04;92525.84;5127906;28;20261;-74
2022/09/26 11:16:00;;;;;;;9.77;9.07;;;;;;;21.72;43.66;92517.59;5127315;28;20660;-74
2022/09/26 11:18:57;;;;;;;8.95;8.38;;;;;;;21.79;44.59;92503.72;5127749;28;20234;-73
2022/09/26 11:21:34;;;;;;;8.30;7.80;;;;;;;22.04;43.50;92496.97;5123841;28;20226;-73
2022/09/26 11:24:14;;;;;;;9.70;8.95;;;;;;;22.31;42.37;92503.94;5127891;28;20202;-73
2022/09/26 11:26:58;;;;;;;9.10;8.48;;;;;;;22.46;42.40;92497.75;5128255;28;20180;-75
2022/09/26 11:29:43;;;;;;;9.07;8.48;;;;;;;22.77;41.43;92489.56;5130406;28;20188;-74
2022/09/26 11:32:42;;;;;;;9.10;8.43;;;;;;;22.71;41.79;92467.03;5130422;28;20236;-74
2022/09/26 11:35:42;;;;;;;8.45;7.93;;;;;;;22.94;42.20;92475.75;5116739;28;20197;-75
2022/09/26 11:38:37;;;;;;;9.80;9.13;;;;;;;22.79;41.66;92474.00;5087509;28;20231;-74
2022/09/26 11:41:37;;;;;;;8.95;8.13;;;;;;;22.73;42.61;92475.44;5131787;28;20195;-74
2022/09/26 11:44:25;;;;;;;11.00;8.40;;;;;;;22.86;42.34;92474.13;5131275;28;20216;-74
2022/09/26 11:46:50;;;;;;;8.38;7.88;;;;;;;23.42;41.22;92459.00;5130930;28;20293;-74
2022/09/26 11:49:34;;;;;;;9.80;8.30;;;;;;;23.17;41.09;92441.09;5130629;28;20217;-74
2022/09/26 11:52:18;;;;;;;8.52;7.70;;;;;;;23.17;40.71;92441.09;5130070;28;20229;-72
2022/09/26 11:54:56;;;;;;;9.15;8.38;;;;;;;23.23;42.20;92445.75;5131480;28;20180;-73
2022/09/26 11:57:33;;;;;;;8.30;7.80;;;;;;;23.33;41.32;92442.47;5130260;28;20224;-72
2022/09/26 12:00:01;;;;;;;8.50;7.90;;;;;;;23.11;41.17;92451.31;5131176;28;20271;-71